createdAt,value
2023-03-13T00:01:42.464Z,-1.88
2023-03-13T00:04:10.794Z,-1.91
2023-03-13T00:06:40.451Z,-1.94
2023-03-13T00:09:11.622Z,-1.96
2023-03-13T00:11:40.046Z,-1.99
2023-03-13T00:14:08.711Z,-2.01
2023-03-13T00:16:40.216Z,-2.04
2023-03-13T00:19:09.537Z,-2.06
2023-03-13T00:21:41.611Z,-2.10
2023-03-13T00:24:11.483Z,-2.12
2023-03-13T00:26:39.659Z,-2.13
2023-03-13T00:29:07.993Z,-2.15
2023-03-13T00:31:36.434Z,-2.16
2023-03-13T00:34:05.358Z,-2.18
2023-03-13T00:36:35.494Z,-2.20
2023-03-13T00:39:05.910Z,-2.22
2023-03-13T00:41:37.493Z,-2.24
2023-03-13T00:44:06.929Z,-2.27
2023-03-13T00:46:35.913Z,-2.27
2023-03-13T00:49:04.721Z,-2.28
2023-03-13T00:51:35.915Z,-2.27
2023-03-13T00:54:05.121Z,-2.25
2023-03-13T00:56:34.813Z,-2.21
2023-03-13T00:59:03.476Z,-2.18
2023-03-13T01:01:35.371Z,-2.14
2023-03-13T01:04:11.925Z,-2.10
2023-03-13T01:06:43.302Z,-2.08
2023-03-13T01:09:17.441Z,-2.09
2023-03-13T01:11:47.024Z,-2.12
2023-03-13T01:14:17.970Z,-2.14
2023-03-13T01:16:46.651Z,-2.15
2023-03-13T01:19:16.524Z,-2.17
2023-03-13T01:21:46.947Z,-2.20
2023-03-13T01:24:15.450Z,-2.24
2023-03-13T01:26:45.127Z,-2.29
2023-03-13T01:29:14.131Z,-2.33
2023-03-13T01:31:42.630Z,-2.37
2023-03-13T01:34:11.890Z,-2.41
2023-03-13T01:36:40.219Z,-2.43
2023-03-13T01:39:08.637Z,-2.45
2023-03-13T01:41:37.731Z,-2.49
2023-03-13T01:44:06.075Z,-2.53
2023-03-13T01:46:37.062Z,-2.57
2023-03-13T01:49:25.326Z,-2.61
2023-03-13T01:52:08.853Z,-2.64
2023-03-13T01:54:44.988Z,-2.66
2023-03-13T01:57:24.667Z,-2.68
2023-03-13T02:00:02.140Z,-2.69
2023-03-13T02:02:44.901Z,-2.71
2023-03-13T02:05:15.293Z,-2.72
2023-03-13T02:07:51.034Z,-2.72
2023-03-13T02:10:22.329Z,-2.72
2023-03-13T02:12:52.211Z,-2.71
2023-03-13T02:15:22.962Z,-2.68
2023-03-13T02:17:51.831Z,-2.65
2023-03-13T02:20:22.458Z,-2.62
2023-03-13T02:23:10.825Z,-2.58
2023-03-13T02:25:44.340Z,-2.51
2023-03-13T02:28:16.529Z,-2.45
2023-03-13T02:30:45.784Z,-2.40
2023-03-13T02:33:15.710Z,-2.38
2023-03-13T02:35:45.836Z,-2.37
2023-03-13T02:38:26.957Z,-2.35
2023-03-13T02:40:57.029Z,-2.35
2023-03-13T02:43:31.222Z,-2.38
2023-03-13T02:46:09.886Z,-2.40
2023-03-13T02:48:47.512Z,-2.43
2023-03-13T02:51:39.328Z,-2.45
2023-03-13T02:54:14.584Z,-2.48
2023-03-13T02:56:48.414Z,-2.53
2023-03-13T02:59:17.398Z,-2.56
2023-03-13T03:01:46.382Z,-2.60
2023-03-13T03:04:14.538Z,-2.66
2023-03-13T03:06:42.608Z,-2.78
2023-03-13T03:09:11.049Z,-2.88
2023-03-13T03:11:39.542Z,-2.95
2023-03-13T03:14:11.977Z,-3.02
2023-03-13T03:16:43.638Z,-3.04
2023-03-13T03:19:11.962Z,-3.08
2023-03-13T03:21:40.296Z,-3.09
2023-03-13T03:24:08.925Z,-3.08
2023-03-13T03:26:37.809Z,-3.06
2023-03-13T03:29:11.244Z,-3.03
2023-03-13T03:31:40.234Z,-3.00
2023-03-13T03:34:08.537Z,-3.01
2023-03-13T03:36:37.046Z,-3.01
2023-03-13T03:39:05.522Z,-3.01
2023-03-13T03:41:34.014Z,-3.02
2023-03-13T03:44:02.381Z,-3.01
2023-03-13T03:46:38.042Z,-2.97
2023-03-13T03:49:06.222Z,-2.95
2023-03-13T03:51:34.738Z,-2.94
2023-03-13T03:54:03.165Z,-2.92
2023-03-13T03:56:32.177Z,-2.89
2023-03-13T03:59:00.848Z,-2.87
2023-03-13T04:01:39.980Z,-2.86
2023-03-13T04:04:08.309Z,-2.88
2023-03-13T04:06:36.582Z,-2.87
2023-03-13T04:09:06.328Z,-2.87
2023-03-13T04:11:35.992Z,-2.87
2023-03-13T04:14:05.089Z,-2.85
2023-03-13T04:16:33.577Z,-2.84
2023-03-13T04:19:02.226Z,-2.83
2023-03-13T04:21:30.739Z,-2.82
2023-03-13T04:24:06.406Z,-2.81
2023-03-13T04:26:35.720Z,-2.80
2023-03-13T04:29:06.507Z,-2.79
2023-03-13T04:32:01.513Z,-2.77
2023-03-13T04:34:32.472Z,-2.73
2023-03-13T04:37:03.081Z,-2.71
2023-03-13T04:39:41.908Z,-2.67
2023-03-13T04:42:28.884Z,-2.64
2023-03-13T04:45:16.543Z,-2.59
2023-03-13T04:48:01.052Z,-2.54
2023-03-13T04:50:29.146Z,-2.55
2023-03-13T04:53:32.659Z,-2.62
2023-03-13T04:56:41.539Z,-2.64
2023-03-13T04:59:33.712Z,-2.65
2023-03-13T05:02:02.066Z,-2.66
2023-03-13T05:04:53.609Z,-2.64
2023-03-13T05:07:29.581Z,-2.62
2023-03-13T05:10:11.726Z,-2.60
2023-03-13T05:13:05.013Z,-2.59
2023-03-13T05:15:51.276Z,-2.58
2023-03-13T05:18:36.402Z,-2.55
2023-03-13T05:21:27.270Z,-2.54
2023-03-13T05:24:16.029Z,-2.49
2023-03-13T05:26:57.657Z,-2.45
2023-03-13T05:29:44.311Z,-2.42
2023-03-13T05:32:51.283Z,-2.38
2023-03-13T05:35:40.699Z,-2.35
2023-03-13T05:38:31.602Z,-2.31
2023-03-13T05:41:26.372Z,-2.23
2023-03-13T05:44:02.854Z,-2.13
2023-03-13T05:46:37.348Z,-2.04
2023-03-13T05:49:31.753Z,-2.01
2023-03-13T05:52:12.683Z,-2.06
2023-03-13T05:55:09.979Z,-2.16
2023-03-13T05:58:01.169Z,-2.17
2023-03-13T06:00:43.880Z,-2.15
2023-03-13T06:03:32.327Z,-2.08
2023-03-13T06:06:01.056Z,-1.96
2023-03-13T06:08:38.225Z,-1.84
2023-03-13T06:11:06.655Z,-1.78
2023-03-13T06:13:35.741Z,-1.70
2023-03-13T06:16:11.560Z,-1.60
2023-03-13T06:18:46.390Z,-1.55
2023-03-13T06:21:16.040Z,-1.49
2023-03-13T06:23:44.665Z,-1.41
2023-03-13T06:26:13.148Z,-1.32
2023-03-13T06:28:41.750Z,-1.27
2023-03-13T06:31:11.184Z,-1.13
2023-03-13T06:33:39.577Z,-0.87
2023-03-13T06:36:08.481Z,-0.41
2023-03-13T06:38:36.855Z,0.19
2023-03-13T06:41:05.399Z,0.70
2023-03-13T06:43:34.339Z,1.07
2023-03-13T06:46:06.081Z,1.30
2023-03-13T06:48:35.087Z,1.47
2023-03-13T06:51:03.643Z,1.85
2023-03-13T06:53:32.250Z,2.28
2023-03-13T06:56:02.193Z,2.48
2023-03-13T06:58:32.952Z,2.44
2023-03-13T07:01:11.189Z,2.59
2023-03-13T07:03:41.720Z,2.71
2023-03-13T07:06:12.488Z,2.86
2023-03-13T07:08:41.454Z,3.03
2023-03-13T07:11:13.229Z,3.23
2023-03-13T07:13:42.794Z,3.44
2023-03-13T07:16:13.745Z,3.60
2023-03-13T07:18:42.739Z,3.59
2023-03-13T07:21:12.121Z,3.55
2023-03-13T07:23:40.686Z,3.61
2023-03-13T07:26:12.938Z,3.52
2023-03-13T07:28:42.140Z,3.32
2023-03-13T07:31:13.176Z,3.19
2023-03-13T07:33:42.378Z,3.26
2023-03-13T07:36:12.629Z,3.39
2023-03-13T07:38:41.542Z,3.62
2023-03-13T07:41:13.816Z,3.94
2023-03-13T07:43:42.584Z,4.19
2023-03-13T07:46:20.417Z,4.35
2023-03-13T07:48:49.766Z,4.66
2023-03-13T07:51:42.105Z,4.87
2023-03-13T07:54:12.292Z,4.99
2023-03-13T07:56:40.721Z,5.11
2023-03-13T07:59:09.911Z,5.29
2023-03-13T08:01:38.650Z,5.42
2023-03-13T08:04:07.685Z,5.33
2023-03-13T08:06:36.970Z,5.20
2023-03-13T08:09:06.560Z,5.04
2023-03-13T08:11:35.279Z,4.81
2023-03-13T08:14:03.912Z,4.56
2023-03-13T08:16:34.800Z,4.43
2023-03-13T08:19:06.199Z,4.31
2023-03-13T08:21:37.559Z,4.20
2023-03-13T08:24:08.460Z,4.14
2023-03-13T08:26:39.560Z,3.98
2023-03-13T08:29:11.223Z,3.77
2023-03-13T08:31:48.270Z,3.70
2023-03-13T08:34:18.610Z,3.78
2023-03-13T08:36:47.497Z,3.80
2023-03-13T08:39:21.049Z,3.82
2023-03-13T08:41:50.324Z,3.97
2023-03-13T08:44:23.156Z,4.16
2023-03-13T08:46:51.574Z,4.35
2023-03-13T08:49:20.129Z,4.56
2023-03-13T08:51:48.626Z,4.72
2023-03-13T08:54:17.076Z,4.89
2023-03-13T08:56:46.853Z,5.03
2023-03-13T08:59:18.516Z,5.06
2023-03-13T09:01:46.939Z,5.13
2023-03-13T09:04:15.895Z,5.27
2023-03-13T09:06:44.321Z,5.42
2023-03-13T09:09:14.522Z,5.51
2023-03-13T09:11:42.880Z,5.55
2023-03-13T09:14:11.634Z,5.46
2023-03-13T09:16:41.078Z,5.55
2023-03-13T09:19:09.963Z,5.67
2023-03-13T09:21:38.805Z,5.77
2023-03-13T09:24:08.717Z,5.90
2023-03-13T09:26:37.451Z,6.08
2023-03-13T09:29:05.911Z,6.25
2023-03-13T09:31:34.877Z,6.43
2023-03-13T09:34:04.787Z,6.59
2023-03-13T09:36:33.452Z,6.77
2023-03-13T09:39:02.770Z,6.94
2023-03-13T09:41:39.280Z,6.98
2023-03-13T09:44:10.809Z,7.09
2023-03-13T09:46:55.043Z,7.26
2023-03-13T09:49:45.714Z,7.27
2023-03-13T09:52:22.708Z,7.30
2023-03-13T09:55:05.070Z,7.40
2023-03-13T09:57:46.978Z,7.56
2023-03-13T10:00:27.645Z,7.71
2023-03-13T10:03:11.286Z,7.84
2023-03-13T10:06:18.643Z,7.94
2023-03-13T10:08:47.557Z,7.99
2023-03-13T10:11:30.187Z,8.01
2023-03-13T10:14:12.264Z,8.09
2023-03-13T10:16:56.836Z,8.17
2023-03-13T10:19:42.812Z,8.31
2023-03-13T10:22:26.529Z,8.33
2023-03-13T10:25:10.652Z,8.20
2023-03-13T10:27:51.926Z,8.19
2023-03-13T10:30:43.781Z,8.33
2023-03-13T10:33:12.100Z,8.41
2023-03-13T10:35:42.787Z,8.45
2023-03-13T10:38:15.778Z,8.45
2023-03-13T10:40:44.656Z,8.45
2023-03-13T10:43:22.482Z,8.48
2023-03-13T10:45:52.263Z,8.63
2023-03-13T10:48:23.946Z,8.73
2023-03-13T10:50:57.556Z,8.75
2023-03-13T10:53:29.955Z,8.72
2023-03-13T10:56:20.407Z,8.84
2023-03-13T10:58:51.393Z,8.94
2023-03-13T11:01:32.714Z,8.94
2023-03-13T11:04:39.581Z,9.03
2023-03-13T11:07:27.424Z,9.27
2023-03-13T11:10:19.135Z,9.49
2023-03-13T11:12:53.762Z,9.66
2023-03-13T11:15:35.611Z,9.73
2023-03-13T11:18:16.274Z,9.77
2023-03-13T11:20:47.055Z,9.72
2023-03-13T11:23:24.799Z,9.67
2023-03-13T11:26:12.024Z,9.72
2023-03-13T11:28:54.332Z,9.67
2023-03-13T11:31:33.630Z,9.59
2023-03-13T11:34:07.176Z,9.49
2023-03-13T11:36:39.226Z,9.46
2023-03-13T11:39:30.905Z,9.47
2023-03-13T11:42:14.874Z,9.48
2023-03-13T11:45:08.810Z,9.50
2023-03-13T11:48:08.398Z,9.62
2023-03-13T11:51:21.046Z,9.76
2023-03-13T11:53:58.618Z,9.86
2023-03-13T11:57:15.400Z,9.92
2023-03-13T11:59:59.551Z,9.90
2023-03-13T12:02:34.338Z,9.70
2023-03-13T12:05:11.632Z,9.67
2023-03-13T12:07:48.468Z,9.70
2023-03-13T12:10:41.457Z,9.71
2023-03-13T12:13:20.332Z,9.77
2023-03-13T12:15:54.583Z,9.73
2023-03-13T12:18:36.784Z,9.69
2023-03-13T12:21:14.657Z,9.68
2023-03-13T12:24:05.983Z,9.72
2023-03-13T12:26:51.872Z,9.77
2023-03-13T12:29:49.395Z,9.94
2023-03-13T12:32:46.370Z,10.02
2023-03-13T12:35:29.398Z,10.05
2023-03-13T12:38:04.028Z,9.99
2023-03-13T12:40:39.736Z,9.98
2023-03-13T12:43:18.948Z,10.07
2023-03-13T12:46:33.458Z,10.19
2023-03-13T12:49:26.389Z,10.24
2023-03-13T12:52:32.627Z,10.22
2023-03-13T12:55:49.550Z,10.21
2023-03-13T12:58:21.937Z,10.24
2023-03-13T13:00:51.982Z,10.25
2023-03-13T13:03:26.010Z,10.25
2023-03-13T13:06:13.234Z,10.30
2023-03-13T13:08:44.523Z,10.35
2023-03-13T13:11:37.862Z,10.37
2023-03-13T13:14:28.988Z,10.34
2023-03-13T13:17:01.431Z,10.32
2023-03-13T13:19:42.588Z,10.28
2023-03-13T13:22:39.185Z,10.32
2023-03-13T13:25:10.670Z,10.31
2023-03-13T13:27:39.256Z,10.28
2023-03-13T13:30:17.362Z,10.32
2023-03-13T13:32:50.705Z,10.38
2023-03-13T13:35:35.058Z,10.43
2023-03-13T13:38:19.012Z,10.35
2023-03-13T13:41:11.567Z,10.36
2023-03-13T13:43:43.604Z,10.36
2023-03-13T13:46:33.584Z,10.37
2023-03-13T13:49:06.119Z,10.34
2023-03-13T13:51:40.059Z,10.38
2023-03-13T13:54:18.573Z,10.38
2023-03-13T13:56:52.706Z,10.42
2023-03-13T13:59:21.444Z,10.45
2023-03-13T14:02:13.950Z,10.43
2023-03-13T14:04:48.844Z,10.40
2023-03-13T14:07:45.100Z,10.43
2023-03-13T14:10:30.508Z,10.52
2023-03-13T14:13:01.070Z,10.54
2023-03-13T14:15:31.853Z,10.53
2023-03-13T14:18:13.863Z,10.51
2023-03-13T14:20:54.871Z,10.50
2023-03-13T14:23:42.791Z,10.49
2023-03-13T14:26:28.132Z,10.52
2023-03-13T14:29:03.602Z,10.57
2023-03-13T14:31:37.891Z,10.47
2023-03-13T14:34:10.277Z,10.42
2023-03-13T14:36:52.252Z,10.46
2023-03-13T14:39:33.392Z,10.41
2023-03-13T14:42:22.576Z,10.32
2023-03-13T14:44:54.235Z,10.25
2023-03-13T14:47:31.032Z,10.26
2023-03-13T14:50:05.069Z,10.27
2023-03-13T14:52:35.392Z,10.29
2023-03-13T14:55:26.198Z,10.25
2023-03-13T14:58:07.867Z,10.21
2023-03-13T15:00:39.436Z,10.16
2023-03-13T15:03:25.831Z,10.10
2023-03-13T15:06:08.584Z,10.03
2023-03-13T15:08:43.062Z,10.03
2023-03-13T15:11:22.400Z,10.06
2023-03-13T15:13:51.492Z,10.08
2023-03-13T15:16:22.029Z,10.10
2023-03-13T15:18:51.926Z,10.09
2023-03-13T15:21:38.583Z,10.04
2023-03-13T15:24:15.734Z,9.96
2023-03-13T15:26:44.794Z,9.91
2023-03-13T15:29:14.401Z,9.88
2023-03-13T15:31:43.160Z,9.85
2023-03-13T15:34:14.695Z,9.78
2023-03-13T15:36:43.147Z,9.77
2023-03-13T15:39:19.550Z,9.71
2023-03-13T15:41:47.898Z,9.65
2023-03-13T15:44:16.493Z,9.60
2023-03-13T15:46:46.653Z,9.54
2023-03-13T15:49:15.333Z,9.50
2023-03-13T15:51:44.407Z,9.44
2023-03-13T15:54:13.107Z,9.35
2023-03-13T15:56:42.527Z,9.29
2023-03-13T15:59:12.896Z,9.23
2023-03-13T16:01:43.038Z,9.17
2023-03-13T16:04:12.251Z,9.09
2023-03-13T16:06:41.165Z,9.02
2023-03-13T16:09:12.590Z,8.97
2023-03-13T16:11:41.485Z,8.89
2023-03-13T16:14:10.128Z,8.81
2023-03-13T16:16:39.739Z,8.71
2023-03-13T16:19:10.760Z,8.60
2023-03-13T16:21:43.466Z,8.49
2023-03-13T16:24:11.898Z,8.37
2023-03-13T16:26:41.061Z,8.26
2023-03-13T16:29:15.490Z,8.18
2023-03-13T16:31:43.763Z,8.08
2023-03-13T16:34:12.513Z,7.95
2023-03-13T16:36:40.724Z,7.83
2023-03-13T16:39:17.031Z,7.71
2023-03-13T16:41:45.601Z,7.59
2023-03-13T16:44:14.678Z,7.47
2023-03-13T16:46:59.071Z,7.37
2023-03-13T16:49:32.838Z,7.26
2023-03-13T16:52:01.392Z,7.16
2023-03-13T16:54:29.800Z,7.06
2023-03-13T16:56:59.315Z,6.98
2023-03-13T16:59:28.623Z,6.90
2023-03-13T17:01:56.791Z,6.83
2023-03-13T17:04:25.239Z,6.75
2023-03-13T17:06:53.653Z,6.65
2023-03-13T17:09:22.230Z,6.56
2023-03-13T17:11:50.513Z,6.45
2023-03-13T17:14:18.729Z,6.35
2023-03-13T17:16:47.771Z,6.29
2023-03-13T17:19:17.262Z,6.21
2023-03-13T17:21:45.874Z,6.12
2023-03-13T17:24:14.523Z,6.05
2023-03-13T17:26:42.763Z,5.98
2023-03-13T17:29:17.276Z,5.90
2023-03-13T17:31:46.164Z,5.84
2023-03-13T17:34:15.705Z,5.78
2023-03-13T17:36:45.696Z,5.72
2023-03-13T17:39:15.984Z,5.67
2023-03-13T17:41:44.161Z,5.60
2023-03-13T17:44:12.607Z,5.55
2023-03-13T17:46:44.434Z,5.50
2023-03-13T17:49:14.755Z,5.45
2023-03-13T17:51:46.366Z,5.36
2023-03-13T17:54:16.040Z,5.27
2023-03-13T17:56:45.862Z,5.24
2023-03-13T17:59:17.832Z,5.22
2023-03-13T18:01:46.954Z,5.20
2023-03-13T18:04:15.558Z,5.17
2023-03-13T18:06:46.498Z,5.13
2023-03-13T18:09:21.150Z,5.09
2023-03-13T18:11:50.246Z,5.04
2023-03-13T18:14:18.808Z,4.98
2023-03-13T18:16:50.443Z,4.93
2023-03-13T18:19:22.697Z,4.87
2023-03-13T18:21:55.845Z,4.80
2023-03-13T18:24:25.252Z,4.74
2023-03-13T18:26:53.597Z,4.70
2023-03-13T18:29:27.268Z,4.68
2023-03-13T18:31:58.904Z,4.67
2023-03-13T18:34:29.004Z,4.66
2023-03-13T18:37:03.888Z,4.64
2023-03-13T18:39:33.165Z,4.62
2023-03-13T18:42:02.328Z,4.60
2023-03-13T18:44:30.555Z,4.61
2023-03-13T18:46:58.665Z,4.60
2023-03-13T18:49:27.285Z,4.59
2023-03-13T18:51:55.824Z,4.55
2023-03-13T18:54:23.941Z,4.51
2023-03-13T18:56:52.412Z,4.51
2023-03-13T18:59:22.506Z,4.53
2023-03-13T19:01:51.365Z,4.57
2023-03-13T19:04:20.335Z,4.58
2023-03-13T19:06:48.888Z,4.57
2023-03-13T19:09:42.184Z,4.54
2023-03-13T19:12:13.162Z,4.48
2023-03-13T19:14:42.102Z,4.44
2023-03-13T19:17:20.574Z,4.42
2023-03-13T19:19:48.892Z,4.36
2023-03-13T19:22:17.600Z,4.32
2023-03-13T19:24:46.274Z,4.30
2023-03-13T19:27:15.025Z,4.30
2023-03-13T19:29:44.128Z,4.26
2023-03-13T19:32:14.907Z,4.21
2023-03-13T19:34:43.690Z,4.17
2023-03-13T19:37:14.443Z,4.12
2023-03-13T19:39:43.090Z,4.08
2023-03-13T19:42:12.094Z,4.06
2023-03-13T19:44:41.617Z,4.00
2023-03-13T19:47:15.955Z,3.95
2023-03-13T19:49:45.845Z,3.90
2023-03-13T19:52:14.496Z,3.85
2023-03-13T19:54:42.642Z,3.86
2023-03-13T19:57:12.331Z,3.87
2023-03-13T19:59:41.490Z,3.80
2023-03-13T20:02:11.727Z,3.73
2023-03-13T20:04:42.768Z,3.68
2023-03-13T20:07:11.493Z,3.65
2023-03-13T20:09:39.712Z,3.66
2023-03-13T20:12:08.129Z,3.65
2023-03-13T20:14:36.237Z,3.63
2023-03-13T20:17:04.947Z,3.58
2023-03-13T20:19:33.846Z,3.50
2023-03-13T20:22:05.411Z,3.46
2023-03-13T20:24:33.751Z,3.45
2023-03-13T20:27:04.368Z,3.45
2023-03-13T20:29:33.992Z,3.46
2023-03-13T20:32:04.947Z,3.46
2023-03-13T20:34:34.651Z,3.46
2023-03-13T20:37:04.061Z,3.46
2023-03-13T20:39:34.282Z,3.46
2023-03-13T20:42:03.428Z,3.45
2023-03-13T20:44:31.856Z,3.43
2023-03-13T20:47:00.606Z,3.42
2023-03-13T20:49:29.230Z,3.41
2023-03-13T20:51:57.550Z,3.43
2023-03-13T20:54:26.050Z,3.44
2023-03-13T20:56:55.101Z,3.43
2023-03-13T20:59:23.346Z,3.42
2023-03-13T21:01:51.631Z,3.42
2023-03-13T21:04:19.933Z,3.43
2023-03-13T21:06:50.250Z,3.46
2023-03-13T21:09:18.610Z,3.48
2023-03-13T21:11:46.975Z,3.50
2023-03-13T21:14:15.388Z,3.52
2023-03-13T21:16:43.489Z,3.55
2023-03-13T21:19:11.597Z,3.59
2023-03-13T21:21:40.330Z,3.62
2023-03-13T21:24:08.823Z,3.65
2023-03-13T21:26:37.677Z,3.68
2023-03-13T21:29:06.517Z,3.72
2023-03-13T21:31:36.089Z,3.77
2023-03-13T21:34:05.721Z,3.79
2023-03-13T21:36:34.180Z,3.81
2023-03-13T21:39:02.953Z,3.81
2023-03-13T21:41:33.668Z,3.80
2023-03-13T21:44:03.094Z,3.79
2023-03-13T21:46:33.399Z,3.78
2023-03-13T21:49:02.507Z,3.77
2023-03-13T21:51:30.680Z,3.75
2023-03-13T21:53:58.678Z,3.73
2023-03-13T21:56:26.777Z,3.70
2023-03-13T21:58:54.976Z,3.65
2023-03-13T22:01:22.948Z,3.60
2023-03-13T22:03:51.046Z,3.55
2023-03-13T22:06:22.701Z,3.49
2023-03-13T22:08:51.841Z,3.40
2023-03-13T22:11:20.012Z,3.32
2023-03-13T22:13:48.104Z,3.24
2023-03-13T22:16:16.097Z,3.18
2023-03-13T22:18:44.212Z,3.14
2023-03-13T22:21:12.400Z,3.10
2023-03-13T22:23:40.547Z,3.06
2023-03-13T22:26:11.373Z,3.02
2023-03-13T22:28:40.184Z,3.00
2023-03-13T22:31:11.264Z,2.97
2023-03-13T22:33:39.304Z,2.94
2023-03-13T22:36:09.232Z,2.93
2023-03-13T22:38:39.168Z,2.91
2023-03-13T22:41:11.845Z,2.88
2023-03-13T22:43:40.121Z,2.84
2023-03-13T22:46:09.370Z,2.80
2023-03-13T22:48:37.762Z,2.75
2023-03-13T22:51:14.445Z,2.72
2023-03-13T22:53:43.147Z,2.70
2023-03-13T22:56:12.521Z,2.71
2023-03-13T22:58:41.879Z,2.74
2023-03-13T23:01:12.853Z,2.75
2023-03-13T23:03:41.600Z,2.74
2023-03-13T23:06:15.755Z,2.73
2023-03-13T23:08:44.650Z,2.70
2023-03-13T23:11:13.086Z,2.68
2023-03-13T23:13:41.202Z,2.65
2023-03-13T23:16:11.993Z,2.62
2023-03-13T23:18:41.936Z,2.62
2023-03-13T23:21:13.465Z,2.61
2023-03-13T23:23:42.068Z,2.59
2023-03-13T23:26:13.203Z,2.57
2023-03-13T23:28:41.399Z,2.57
2023-03-13T23:31:14.981Z,2.62
2023-03-13T23:33:43.074Z,2.67
2023-03-13T23:36:13.945Z,2.70
2023-03-13T23:38:42.685Z,2.68
2023-03-13T23:41:13.361Z,2.64
2023-03-13T23:43:41.707Z,2.60
2023-03-13T23:46:19.087Z,2.55
2023-03-13T23:48:47.411Z,2.48
2023-03-13T23:51:15.546Z,2.41
2023-03-13T23:53:44.331Z,2.35
2023-03-13T23:56:12.618Z,2.29
2023-03-13T23:58:41.668Z,2.23
